Time;durP1;ratioP1;P1;durP2;ratioP2;P2;SDS_P1;SDS_P2;PMS_P1;PMS_P2;Temp;Humidity;BMP_temperature;BMP_pressure;BME280_temperature;BME280_humidity;BME280_pressure;Samples;Min_cycle;Max_cycle;Signal;HPM_P1;HPM_P2
2023/03/26 00:01:18;;;;;;;;;;;;;;;6.87;100.00;99253.13;5033110;28;19917;-79
2023/03/26 00:03:45;;;;;;;;;;;;;;;6.92;100.00;99277.22;5031900;28;19945;-79
2023/03/26 00:06:13;;;;;;;;;;;;;;;7.15;100.00;99261.28;5033803;28;19959;-78
2023/03/26 00:08:40;;;;;;;;;;;;;;;7.28;100.00;99265.31;5033132;28;19908;-78
2023/03/26 00:11:06;;;;;;;;;;;;;;;7.27;100.00;99263.00;5043196;28;20391;-79
2023/03/26 00:13:34;;;;;;;;;;;;;;;7.25;100.00;99265.53;5051701;28;20010;-80
2023/03/26 00:16:00;;;;;;;;;;;;;;;7.21;100.00;99268.59;5052886;28;19916;-79
2023/03/26 00:18:30;;;;;;;;;;;;;;;7.24;100.00;99259.06;5052851;28;19935;-79
2023/03/26 00:20:58;;;;;;;;;;;;;;;7.13;100.00;99264.59;5051988;28;20004;-79
2023/03/26 00:23:23;;;;;;;;;;;;;;;6.98;100.00;99261.81;5053270;28;19916;-80
2023/03/26 00:26:03;;;;;;;;;;;;;;;6.94;100.00;99254.75;5051772;28;19908;-80
2023/03/26 00:28:29;;;;;;;;;;;;;;;6.80;100.00;99253.53;5053319;28;19912;-79
2023/03/26 00:30:58;;;;;;;;;;;;;;;6.73;100.00;99251.13;5050813;28;19909;-80
2023/03/26 00:33:23;;;;;;;;;;;;;;;6.64;100.00;99249.16;5035819;28;19909;-80
2023/03/26 00:35:53;;;;;;;;;;;;;;;6.56;100.00;99252.91;5052034;28;19909;-80
2023/03/26 00:38:37;;;;;;;;;;;;;;;6.34;100.00;99233.44;5052016;28;19952;-80
2023/03/26 00:41:04;;;;;;;;;;;;;;;6.37;100.00;99243.81;5060583;28;19999;-79
2023/03/26 00:43:32;;;;;;;;;;;;;;;6.30;100.00;99246.25;5060143;28;19916;-80
2023/03/26 00:45:58;;;;;;;;;;;;;;;6.29;100.00;99242.59;5055958;28;19951;-79
2023/03/26 00:48:26;;;;;;;;;;;;;;;6.32;100.00;99244.50;5038791;28;19916;-79
2023/03/26 00:50:52;;;;;;;;;;;;;;;6.36;100.00;99242.25;5039135;28;19916;-80
2023/03/26 00:53:18;;;;;;;;;;;;;;;6.55;100.00;99243.59;5055442;28;19999;-80
2023/03/26 00:55:46;;;;;;;;;;;;;;;6.62;100.00;99239.59;5038209;28;19917;-79
2023/03/26 00:58:13;;;;;;;;;;;;;;;6.60;100.00;99237.22;5056740;28;19923;-79
2023/03/26 01:00:42;;;;;;;;;;;;;;;6.61;100.00;99243.69;5055529;28;19920;-79
2023/03/26 01:03:09;;;;;;;;;;;;;;;6.53;100.00;99242.53;5054670;28;19917;-78
2023/03/26 01:05:47;;;;;;;;;;;;;;;6.41;100.00;99240.78;5056498;28;19974;-79
2023/03/26 01:08:31;;;;;;;;;;;;;;;6.38;100.00;99247.44;5075877;28;19908;-78
2023/03/26 01:11:05;;;;;;;;;;;;;;;6.27;100.00;99244.38;5076523;28;19924;-78
2023/03/26 01:13:32;;;;;;;;;;;;;;;6.14;100.00;99239.00;5076067;28;19909;-78
2023/03/26 01:16:00;;;;;;;;;;;;;;;6.06;100.00;99237.81;5058186;28;19920;-78
2023/03/26 01:18:44;;;;;;;;;;;;;;;6.01;100.00;99239.28;5074961;28;19912;-77
2023/03/26 01:21:13;;;;;;;;;;;;;;;5.96;100.00;99242.78;5076421;28;19912;-78
2023/03/26 01:23:44;;;;;;;;;;;;;;;5.94;100.00;99233.22;5074782;28;20321;-78
2023/03/26 01:26:32;;;;;;;;;;;;;;;5.93;100.00;99237.31;5075149;28;19908;-78
2023/03/26 01:29:00;;;;;;;;;;;;;;;5.90;100.00;99236.22;5075310;28;20398;-79
2023/03/26 01:31:40;;;;;;;;;;;;;;;5.99;100.00;99246.72;5074868;28;20011;-78
2023/03/26 01:34:15;;;;;;;;;;;;;;;6.20;100.00;99248.38;5076186;28;19908;-78
2023/03/26 01:36:50;;;;;;;;;;;;;;;6.29;100.00;99239.00;5075979;28;19916;-78
2023/03/26 01:39:20;;;;;;;;;;;;;;;6.29;100.00;99239.75;5074449;28;19920;-78
2023/03/26 01:41:56;;;;;;;;;;;;;;;6.28;100.00;99238.22;5076378;28;19912;-78
2023/03/26 01:44:43;;;;;;;;;;;;;;;6.32;100.00;99241.66;5063749;28;19929;-79
2023/03/26 01:47:09;;;;;;;;;;;;;;;6.25;100.00;99236.34;5034525;28;19916;-78
2023/03/26 01:49:36;;;;;;;;;;;;;;;6.20;100.00;99246.31;5034216;28;19909;-76
2023/03/26 01:52:08;;;;;;;;;;;;;;;6.28;100.00;99241.06;5035281;28;20015;-79
2023/03/26 01:54:33;;;;;;;;;;;;;;;6.32;100.00;99243.72;5035695;28;19909;-77
2023/03/26 01:57:02;;;;;;;;;;;;;;;6.39;100.00;99246.16;5035072;28;19940;-79
2023/03/26 01:59:30;;;;;;;;;;;;;;;6.46;100.00;99240.88;5035579;28;20051;-78
2023/03/26 02:02:14;;;;;;;;;;;;;;;6.57;100.00;99246.72;5035740;28;19909;-79
2023/03/26 02:04:52;;;;;;;;;;;;;;;6.65;100.00;99236.53;5035424;28;19916;-78
2023/03/26 02:07:27;;;;;;;;;;;;;;;6.74;100.00;99232.78;5035525;28;19913;-78
2023/03/26 02:09:57;;;;;;;;;;;;;;;6.93;100.00;99225.59;5035383;28;20234;-78
2023/03/26 02:12:22;;;;;;;;;;;;;;;7.00;100.00;99224.41;5034064;28;20012;-79
2023/03/26 02:14:48;;;;;;;;;;;;;;;7.09;100.00;99225.03;5017517;28;19916;-78
2023/03/26 02:17:13;;;;;;;;;;;;;;;7.27;100.00;99217.53;5017354;28;19909;-79
2023/03/26 02:19:41;;;;;;;;;;;;;;;7.39;100.00;99225.69;5034236;28;19932;-79
2023/03/26 02:22:17;;;;;;;;;;;;;;;7.46;100.00;99225.28;5033801;28;20419;-79
2023/03/26 02:24:43;;;;;;;;;;;;;;;7.54;100.00;99220.72;5052093;28;19951;-77
2023/03/26 02:27:12;;;;;;;;;;;;;;;7.56;100.00;99233.66;5053761;28;19913;-78
2023/03/26 02:29:39;;;;;;;;;;;;;;;7.58;100.00;99219.72;5054986;28;19936;-78
2023/03/26 02:32:06;;;;;;;;;;;;;;;7.68;100.00;99212.59;5053613;28;19993;-78
2023/03/26 02:34:32;;;;;;;;;;;;;;;7.74;100.00;99222.75;5053401;28;19916;-79
2023/03/26 02:36:59;;;;;;;;;;;;;;;7.77;100.00;99221.75;5054721;28;19909;-80
2023/03/26 02:39:26;;;;;;;;;;;;;;;7.86;100.00;99210.22;5053020;28;19912;-80
2023/03/26 02:41:51;;;;;;;;;;;;;;;7.88;100.00;99227.56;5054135;28;19916;-79
2023/03/26 02:44:17;;;;;;;;;;;;;;;7.87;100.00;99225.22;5053478;28;20350;-80
2023/03/26 02:46:43;;;;;;;;;;;;;;;7.75;100.00;99215.78;5053338;28;19912;-79
2023/03/26 02:49:08;;;;;;;;;;;;;;;7.70;100.00;99221.41;5053592;28;19909;-78
2023/03/26 02:51:36;;;;;;;;;;;;;;;7.66;100.00;99218.00;5054772;28;19932;-80
2023/03/26 02:54:03;;;;;;;;;;;;;;;7.65;100.00;99211.53;5053967;28;19912;-78
2023/03/26 02:56:29;;;;;;;;;;;;;;;7.70;100.00;99210.03;5052760;28;19920;-78
2023/03/26 02:58:56;;;;;;;;;;;;;;;7.74;100.00;99216.28;5054630;28;19988;-80
2023/03/26 03:01:22;;;;;;;;;;;;;;;7.80;100.00;99211.44;5054193;28;19912;-77
2023/03/26 03:03:47;;;;;;;;;;;;;;;7.78;100.00;99211.16;5054305;28;19920;-78
2023/03/26 03:06:17;;;;;;;;;;;;;;;7.76;100.00;99208.06;5054015;28;19909;-77
2023/03/26 03:08:44;;;;;;;;;;;;;;;7.84;100.00;99204.25;5052886;28;20023;-78
2023/03/26 03:11:20;;;;;;;;;;;;;;;7.88;100.00;99209.72;5054145;28;20396;-78
2023/03/26 03:13:47;;;;;;;;;;;;;;;7.87;100.00;99211.78;5052896;28;19912;-77
2023/03/26 03:16:13;;;;;;;;;;;;;;;7.94;100.00;99210.56;5054247;28;19935;-77
2023/03/26 03:18:39;;;;;;;;;;;;;;;7.89;100.00;99214.13;5052824;28;20270;-79
2023/03/26 03:21:06;;;;;;;;;;;;;;;7.89;100.00;99216.97;5052602;28;19977;-77
2023/03/26 03:23:31;;;;;;;;;;;;;;;7.90;100.00;99215.69;5054083;28;19917;-79
2023/03/26 03:26:06;;;;;;;;;;;;;;;7.91;100.00;99214.41;5052642;28;20369;-80
2023/03/26 03:28:35;;;;;;;;;;;;;;;7.91;100.00;99217.25;5053782;28;19912;-77
2023/03/26 03:31:04;;;;;;;;;;;;;;;7.84;100.00;99212.78;5053917;28;19908;-78
2023/03/26 03:33:45;;;;;;;;;;;;;;;7.83;100.00;99216.13;5052540;28;19938;-79
2023/03/26 03:36:22;;;;;;;;;;;;;;;7.91;100.00;99218.03;5053441;28;19915;-78
2023/03/26 03:38:48;;;;;;;;;;;;;;;7.87;100.00;99225.22;5052390;28;20365;-78
2023/03/26 03:41:16;;;;;;;;;;;;;;;7.88;100.00;99223.94;5053658;28;20019;-77
2023/03/26 03:43:46;;;;;;;;;;;;;;;7.95;100.00;99224.28;5053537;28;19913;-78
2023/03/26 03:46:12;;;;;;;;;;;;;;;8.05;100.00;99221.28;5052344;28;19943;-77
2023/03/26 03:48:38;;;;;;;;;;;;;;;8.06;100.00;99215.09;5052753;28;19956;-78
2023/03/26 03:51:04;;;;;;;;;;;;;;;7.98;100.00;99228.19;5050283;28;19959;-78
2023/03/26 03:53:29;;;;;;;;;;;;;;;7.95;100.00;99223.50;5052270;28;19913;-78
2023/03/26 03:55:54;;;;;;;;;;;;;;;7.96;100.00;99220.13;5050763;28;19917;-79
2023/03/26 03:58:35;;;;;;;;;;;;;;;7.93;100.00;99234.59;5035530;28;19912;-78
2023/03/26 04:01:01;;;;;;;;;;;;;;;7.93;100.00;99238.22;5053175;28;19944;-79
2023/03/26 04:03:27;;;;;;;;;;;;;;;7.99;100.00;99232.59;5053415;28;19909;-78
2023/03/26 04:05:54;;;;;;;;;;;;;;;8.00;100.00;99236.22;5053404;28;19909;-76
2023/03/26 04:08:21;;;;;;;;;;;;;;;8.00;100.00;99239.84;5052947;28;19942;-79
2023/03/26 04:10:46;;;;;;;;;;;;;;;7.97;100.00;99235.16;5051688;28;20358;-78
2023/03/26 04:13:11;;;;;;;;;;;;;;;7.97;100.00;99238.78;5052532;28;20050;-79
2023/03/26 04:15:51;;;;;;;;;;;;;;;8.04;100.00;99237.56;5040279;28;19924;-79
2023/03/26 04:18:17;;;;;;;;;;;;;;;8.07;100.00;99233.69;5051687;28;19908;-77
2023/03/26 04:20:48;;;;;;;;;;;;;;;8.10;100.00;99244.09;5052977;28;19920;-78
2023/03/26 04:23:16;;;;;;;;;;;;;;;8.12;100.00;99240.72;5051918;28;20325;-77
2023/03/26 04:26:02;;;;;;;;;;;;;;;8.11;100.00;99242.81;5051687;28;20308;-78
2023/03/26 04:28:29;;;;;;;;;;;;;;;8.15;100.00;99243.38;5053125;28;19935;-77
2023/03/26 04:30:55;;;;;;;;;;;;;;;8.18;100.00;99238.75;5053201;28;19908;-79
2023/03/26 04:33:23;;;;;;;;;;;;;;;8.17;100.00;99248.56;5050827;28;19909;-79
2023/03/26 04:35:50;;;;;;;;;;;;;;;8.20;100.00;99250.44;5059704;28;19916;-79
2023/03/26 04:38:17;;;;;;;;;;;;;;;8.22;100.00;99253.53;5052827;28;19916;-78
2023/03/26 04:40:46;;;;;;;;;;;;;;;8.24;100.00;99248.91;5051433;28;19913;-79
2023/03/26 04:43:16;;;;;;;;;;;;;;;8.26;100.00;99249.19;5047455;28;19916;-81
2023/03/26 04:45:42;;;;;;;;;;;;;;;8.30;100.00;99254.66;5050226;28;19916;-77
2023/03/26 04:48:13;;;;;;;;;;;;;;;8.30;100.00;99248.97;5051778;28;19936;-79
2023/03/26 04:50:43;;;;;;;;;;;;;;;8.25;100.00;99252.53;5053455;28;19909;-78
2023/03/26 04:53:13;;;;;;;;;;;;;;;8.25;100.00;99249.69;5040409;28;20019;-80
2023/03/26 04:55:50;;;;;;;;;;;;;;;8.23;100.00;99255.09;5047287;28;20002;-79
2023/03/26 04:58:15;;;;;;;;;;;;;;;8.19;100.00;99251.69;5045310;28;19924;-79
2023/03/26 05:00:40;;;;;;;;;;;;;;;8.14;100.00;99253.19;5032057;28;19913;-78
2023/03/26 05:03:08;;;;;;;;;;;;;;;8.06;100.00;99257.75;5031615;28;19932;-76
2023/03/26 05:05:35;;;;;;;;;;;;;;;8.10;100.00;99254.69;5014697;28;19924;-78
2023/03/26 05:08:02;;;;;;;;;;;;;;;8.08;100.00;99246.66;5031986;28;19944;-77
2023/03/26 05:10:35;;;;;;;;;;;;;;;8.10;100.00;99254.69;5032762;28;19915;-77
2023/03/26 05:13:00;;;;;;;;;;;;;;;8.05;100.00;99253.34;5032868;28;19916;-78
2023/03/26 05:15:26;;;;;;;;;;;;;;;8.06;100.00;99254.13;5032526;28;19983;-78
2023/03/26 05:17:51;;;;;;;;;;;;;;;8.02;100.00;99251.50;5032709;28;19913;-77
2023/03/26 05:20:17;;;;;;;;;;;;;;;8.01;100.00;99249.16;5032358;28;19920;-79
2023/03/26 05:22:43;;;;;;;;;;;;;;;8.05;100.00;99252.56;5032693;28;19913;-78
2023/03/26 05:25:10;;;;;;;;;;;;;;;8.11;100.00;99250.56;5032597;28;19917;-78
2023/03/26 05:27:37;;;;;;;;;;;;;;;8.15;100.00;99254.75;5039205;28;19912;-78
2023/03/26 05:30:07;;;;;;;;;;;;;;;8.09;100.00;99253.13;5056135;28;19912;-79
2023/03/26 05:32:33;;;;;;;;;;;;;;;8.09;100.00;99259.59;5055614;28;19920;-78
2023/03/26 05:34:59;;;;;;;;;;;;;;;8.16;100.00;99253.47;5055703;28;19967;-79
2023/03/26 05:37:29;;;;;;;;;;;;;;;8.18;100.00;99253.75;5056396;28;19947;-79
2023/03/26 05:39:56;;;;;;;;;;;;;;;8.20;100.00;99247.59;5054527;28;19917;-79
2023/03/26 05:42:22;;;;;;;;;;;;;;;8.29;100.00;99241.72;5037846;28;19916;-79
2023/03/26 05:44:49;;;;;;;;;;;;;;;8.31;100.00;99251.28;5055481;28;19913;-79
2023/03/26 05:47:15;;;;;;;;;;;;;;;8.29;100.00;99253.88;5055609;28;20329;-78
2023/03/26 05:49:41;;;;;;;;;;;;;;;8.44;100.00;99255.81;5054805;28;19905;-79
2023/03/26 05:52:07;;;;;;;;;;;;;;;8.45;100.00;99248.84;5055772;28;19913;-78
2023/03/26 05:54:33;;;;;;;;;;;;;;;8.44;100.00;99245.22;5054648;28;20292;-79
2023/03/26 05:56:59;;;;;;;;;;;;;;;8.52;100.00;99251.22;5053853;28;20258;-79
2023/03/26 05:59:26;;;;;;;;;;;;;;;8.57;100.00;99259.81;5049805;28;19963;-80
2023/03/26 06:01:53;;;;;;;;;;;;;;;8.74;100.00;99263.59;5045009;28;20323;-79
2023/03/26 06:04:20;;;;;;;;;;;;;;;8.83;100.00;99259.78;5044129;28;20258;-78
2023/03/26 06:06:45;;;;;;;;;;;;;;;8.98;100.00;99257.53;5048088;28;19913;-80
2023/03/26 06:09:12;;;;;;;;;;;;;;;9.29;100.00;99267.31;5039881;28;20423;-78
2023/03/26 06:11:38;;;;;;;;;;;;;;;9.45;100.00;99264.56;5035519;28;19908;-77
2023/03/26 06:14:24;;;;;;;;;;;;;;;9.68;100.00;99268.31;5035280;28;20063;-77
2023/03/26 06:16:51;;;;;;;;;;;;;;;9.72;100.00;99262.34;5035205;28;19909;-77
2023/03/26 06:19:17;;;;;;;;;;;;;;;9.76;100.00;99262.91;5017472;28;19909;-80
2023/03/26 06:21:43;;;;;;;;;;;;;;;9.95;100.00;99264.00;5031047;28;19917;-82
2023/03/26 06:24:10;;;;;;;;;;;;;;;11.01;100.00;99264.13;5036497;28;19916;-78
2023/03/26 06:26:36;;;;;;;;;;;;;;;11.39;100.00;99269.00;5033651;28;20392;-77
2023/03/26 06:29:02;;;;;;;;;;;;;;;11.33;100.00;99274.75;5033399;28;19916;-75
2023/03/26 06:31:27;;;;;;;;;;;;;;;11.10;100.00;99281.78;5034773;28;20436;-76
2023/03/26 06:33:54;;;;;;;;;;;;;;;10.85;100.00;99272.19;5035108;28;19909;-77
2023/03/26 06:36:19;;;;;;;;;;;;;;;10.60;100.00;99278.16;5034040;28;19909;-77
2023/03/26 06:38:46;;;;;;;;;;;;;;;10.31;100.00;99283.06;5035108;28;19909;-77
2023/03/26 06:41:30;;;;;;;;;;;;;;;10.20;100.00;99274.44;5033409;28;20416;-77
2023/03/26 06:43:56;;;;;;;;;;;;;;;10.19;100.00;99270.03;5040824;28;19952;-78
2023/03/26 06:46:22;;;;;;;;;;;;;;;10.27;100.00;99273.97;5041308;28;19908;-77
2023/03/26 06:48:50;;;;;;;;;;;;;;;10.28;100.00;99269.03;5046573;28;19920;-75
2023/03/26 06:51:16;;;;;;;;;;;;;;;10.33;100.00;99271.13;5034286;28;19942;-73
2023/03/26 06:53:42;;;;;;;;;;;;;;;10.38;100.00;99285.38;5045437;28;19913;-74
2023/03/26 06:56:09;;;;;;;;;;;;;;;10.43;100.00;99273.19;5044595;28;19991;-74
2023/03/26 06:58:37;;;;;;;;;;;;;;;10.45;100.00;99279.19;5043870;28;19948;-73
2023/03/26 07:01:02;;;;;;;;;;;;;;;10.56;100.00;99281.28;5032221;28;19978;-75
2023/03/26 07:03:29;;;;;;;;;;;;;;;10.51;100.00;99279.19;5034113;28;19949;-74
2023/03/26 07:05:55;;;;;;;;;;;;;;;10.63;100.00;99269.31;5034000;28;19916;-74
2023/03/26 07:08:23;;;;;;;;;;;;;;;10.75;100.00;99278.69;5033996;28;20021;-74
2023/03/26 07:10:48;;;;;;;;;;;;;;;10.80;100.00;99278.69;5050130;28;20299;-74
2023/03/26 07:13:14;;;;;;;;;;;;;;;10.83;100.00;99276.84;5053023;28;20011;-74
2023/03/26 07:15:40;;;;;;;;;;;;;;;10.73;100.00;99278.44;5047472;28;20370;-77
2023/03/26 07:18:06;;;;;;;;;;;;;;;10.56;100.00;99289.84;5043785;28;19962;-73
2023/03/26 07:20:33;;;;;;;;;;;;;;;10.50;100.00;99306.19;5053796;28;19948;-71
2023/03/26 07:22:58;;;;;;;;;;;;;;;10.56;100.00;99295.56;5037279;28;19917;-72
2023/03/26 07:25:31;;;;;;;;;;;;;;;10.43;100.00;99284.63;5052507;28;19919;-71
2023/03/26 07:28:10;;;;;;;;;;;;;;;10.23;100.00;99293.44;5053747;28;19909;-69
2023/03/26 07:30:55;;;;;;;;;;;;;;;10.06;100.00;99287.66;5053681;28;20366;-71
2023/03/26 07:33:34;;;;;;;;;;;;;;;9.96;100.00;99289.19;5053869;28;19909;-70
2023/03/26 07:36:12;;;;;;;;;;;;;;;9.84;100.00;99292.53;5053816;28;19999;-70
2023/03/26 07:38:42;;;;;;;;;;;;;;;9.76;100.00;99286.50;5053937;28;19909;-70
2023/03/26 07:41:10;;;;;;;;;;;;;;;9.86;100.00;99284.22;5053423;28;20251;-70
2023/03/26 07:43:56;;;;;;;;;;;;;;;9.94;100.00;99279.59;5053535;28;19923;-72
2023/03/26 07:46:33;;;;;;;;;;;;;;;10.22;100.00;99277.59;5037284;28;20273;-71
2023/03/26 07:49:00;;;;;;;;;;;;;;;10.50;100.00;99278.41;5047422;28;19919;-72
2023/03/26 07:51:27;;;;;;;;;;;;;;;10.80;100.00;99267.25;5035280;28;20373;-71
2023/03/26 07:53:52;;;;;;;;;;;;;;;11.03;100.00;99276.56;5053393;28;20333;-72
2023/03/26 07:56:18;;;;;;;;;;;;;;;11.25;100.00;99281.53;5047781;28;19916;-72
2023/03/26 07:58:45;;;;;;;;;;;;;;;11.47;100.00;99281.47;5037407;28;20019;-72
2023/03/26 08:01:27;;;;;;;;;;;;;;;11.57;100.00;99276.22;5040792;28;19963;-73
2023/03/26 08:04:12;;;;;;;;;;;;;;;11.63;100.00;99274.91;5034000;28;19915;-72
2023/03/26 08:06:39;;;;;;;;;;;;;;;11.66;100.00;99282.47;5044290;28;19948;-72
2023/03/26 08:09:16;;;;;;;;;;;;;;;11.75;100.00;99273.59;5047181;28;19916;-75
2023/03/26 08:11:52;;;;;;;;;;;;;;;11.81;98.70;99274.31;5037303;28;19955;-76
2023/03/26 08:14:36;;;;;;;;;;;;;;;11.78;98.26;99269.66;5031600;28;20270;-71
2023/03/26 08:17:09;;;;;;;;;;;;;;;11.74;97.37;99269.16;5033118;28;19944;-74
2023/03/26 08:19:37;;;;;;;;;;;;;;;11.59;97.46;99257.25;5031929;28;20012;-77
2023/03/26 08:22:12;;;;;;;;;;;;;;;11.57;97.98;99264.78;5032433;28;19927;-78
2023/03/26 08:24:56;;;;;;;;;;;;;;;11.60;97.63;99266.63;5032119;28;19928;-78
2023/03/26 08:27:46;;;;;;;;;;;;;;;11.59;99.34;99259.31;5033408;28;19915;-85
2023/03/26 08:30:18;;;;;;;;;;;;;;;11.87;98.06;99242.03;5044663;28;19915;-79
2023/03/26 08:32:48;;;;;;;;;;;;;;;11.98;96.34;99253.44;5056505;28;19909;-80
2023/03/26 08:35:14;;;;;;;;;;;;;;;11.89;95.55;99243.06;5048299;28;19924;-78
2023/03/26 08:37:40;;;;;;;;;;;;;;;11.86;93.66;99249.09;5033079;28;19959;-78
2023/03/26 08:40:05;;;;;;;;;;;;;;;12.09;93.79;99241.91;5036473;28;20342;-75
2023/03/26 08:42:43;;;;;;;;;;;;;;;12.78;90.67;99253.97;5052406;28;20361;-74
2023/03/26 08:45:24;;;;;;;;;;;;;;;13.35;86.88;99250.00;5051540;28;20349;-74
2023/03/26 08:48:05;;;;;;;;;;;;;;;13.76;83.82;99237.56;5052419;28;19909;-75
2023/03/26 08:50:42;;;;;;;;;;;;;;;14.40;77.17;99259.41;5052175;28;20314;-74
2023/03/26 08:53:14;;;;;;;;;;;;;;;14.93;71.16;99259.63;5048265;28;19913;-75
2023/03/26 08:55:48;;;;;;;;;;;;;;;16.16;65.99;99258.03;5032534;28;19917;-75
2023/03/26 08:58:13;;;;;;;;;;;;;;;17.35;58.89;99244.63;5031543;28;19916;-73
2023/03/26 09:01:02;;;;;;;;;;;;;;;17.69;52.31;99255.28;5036397;28;19982;-78
2023/03/26 09:03:31;;;;;;;;;;;;;;;17.82;54.54;99246.50;5054046;28;20007;-75
2023/03/26 09:05:57;;;;;;;;;;;;;;;17.83;51.96;99242.28;5048274;28;19908;-74
2023/03/26 09:08:25;;;;;;;;;;;;;;;18.35;50.95;99255.47;5057063;28;19912;-75
2023/03/26 09:11:09;;;;;;;;;;;;;;;18.15;48.80;99245.50;5053366;28;20358;-75
2023/03/26 09:14:02;;;;;;;;;;;;;;;16.92;50.53;99251.00;5036607;28;19920;-75
2023/03/26 09:16:47;;;;;;;;;;;;;;;16.23;55.80;99245.03;5043139;28;20269;-75
2023/03/26 09:19:36;;;;;;;;;;;;;;;16.38;59.37;99246.00;5036294;28;20073;-71
2023/03/26 09:22:13;;;;;;;;;;;;;;;16.98;57.67;99240.09;5042815;28;19916;-76
2023/03/26 09:24:53;;;;;;;;;;;;;;;16.95;55.07;99235.44;5042436;28;19917;-77
2023/03/26 09:27:38;;;;;;;;;;;;;;;17.36;54.13;99245.41;5018404;28;19917;-78
2023/03/26 09:30:20;;;;;;;;;;;;;;;17.69;50.93;99244.50;5036081;28;19920;-74
2023/03/26 09:33:06;;;;;;;;;;;;;;;17.56;49.93;99241.72;5036208;28;19949;-75
2023/03/26 09:35:32;;;;;;;;;;;;;;;17.63;49.75;99235.25;5035919;28;19909;-78
2023/03/26 09:38:18;;;;;;;;;;;;;;;17.96;49.93;99227.69;5038763;28;19948;-78
2023/03/26 09:41:03;;;;;;;;;;;;;;;18.04;48.78;99239.28;5034145;28;20452;-74
2023/03/26 09:43:39;;;;;;;;;;;;;;;17.73;48.86;99230.44;5036139;28;19909;-77
2023/03/26 09:46:24;;;;;;;;;;;;;;;17.34;50.41;99239.41;5036002;28;19909;-76
2023/03/26 09:49:08;;;;;;;;;;;;;;;17.47;53.41;99248.03;5036049;28;19909;-74
2023/03/26 09:51:44;;;;;;;;;;;;;;;17.88;54.85;99244.25;5035756;28;19908;-73
2023/03/26 09:54:32;;;;;;;;;;;;;;;17.93;53.65;99256.97;5041247;28;19913;-74
2023/03/26 09:56:59;;;;;;;;;;;;;;;17.63;54.03;99248.91;5055608;28;20358;-74
2023/03/26 09:59:52;;;;;;;;;;;;;;;17.53;55.09;99251.53;5057112;28;19913;-75
2023/03/26 10:02:20;;;;;;;;;;;;;;;17.56;55.98;99253.28;5056252;28;20256;-74
2023/03/26 10:05:03;;;;;;;;;;;;;;;17.42;56.61;99246.03;5055813;28;19959;-74
2023/03/26 10:07:37;;;;;;;;;;;;;;;17.19;57.05;99233.53;5055579;28;19908;-75
2023/03/26 10:10:07;;;;;;;;;;;;;;;16.88;57.40;99244.06;5056123;28;19912;-76
2023/03/26 10:12:43;;;;;;;;;;;;;;;16.48;58.10;99240.53;5052527;28;20018;-76
2023/03/26 10:15:22;;;;;;;;;;;;;;;16.02;62.88;99247.84;5054345;28;19912;-79
2023/03/26 10:18:06;;;;;;;;;;;;;;;15.24;71.12;99227.16;5056180;28;19909;-78
2023/03/26 10:20:32;;;;;;;;;;;;;;;14.24;73.56;99220.19;5055611;28;19940;-78
2023/03/26 10:23:30;;;;;;;;;;;;;;;13.63;71.91;99226.78;5055876;28;20416;-78
2023/03/26 10:26:05;;;;;;;;;;;;;;;13.32;74.67;99239.63;5055346;28;19966;-78
2023/03/26 10:28:47;;;;;;;;;;;;;;;13.09;77.43;99224.75;5057352;28;19916;-78
2023/03/26 10:31:33;;;;;;;;;;;;;;;12.88;77.41;99220.00;5043107;28;20389;-78
2023/03/26 10:34:22;;;;;;;;;;;;;;;12.81;80.83;99209.88;5054988;28;20342;-77
2023/03/26 10:37:15;;;;;;;;;;;;;;;12.83;76.74;99198.66;5055174;28;19916;-76
2023/03/26 10:39:47;;;;;;;;;;;;;;;13.14;71.18;99218.13;5055304;28;20001;-74
2023/03/26 10:42:12;;;;;;;;;;;;;;;13.27;71.69;99208.88;5054947;28;19986;-75
2023/03/26 10:44:51;;;;;;;;;;;;;;;13.25;67.05;99217.25;5054985;28;19952;-76
2023/03/26 10:47:32;;;;;;;;;;;;;;;13.22;66.80;99218.34;5054576;28;20049;-77
2023/03/26 10:50:02;;;;;;;;;;;;;;;13.32;67.34;99204.41;5054621;28;19963;-75
2023/03/26 10:52:36;;;;;;;;;;;;;;;13.12;67.47;99202.78;5054749;28;19935;-75
2023/03/26 10:55:34;;;;;;;;;;;;;;;12.88;66.85;99205.66;5054171;28;19908;-75
2023/03/26 10:58:22;;;;;;;;;;;;;;;12.72;70.35;99200.84;5052957;28;20090;-75
2023/03/26 11:00:50;;;;;;;;;;;;;;;12.81;68.98;99194.75;5052773;28;19923;-74
2023/03/26 11:03:17;;;;;;;;;;;;;;;13.02;67.62;99193.00;5047593;28;19909;-73
2023/03/26 11:06:02;;;;;;;;;;;;;;;13.33;67.05;99205.97;5042304;28;19948;-75
2023/03/26 11:08:45;;;;;;;;;;;;;;;13.56;66.71;99181.44;5034135;28;19909;-75
2023/03/26 11:11:29;;;;;;;;;;;;;;;13.67;65.42;99200.63;5034288;28;19937;-73
2023/03/26 11:14:18;;;;;;;;;;;;;;;13.86;69.65;99189.91;5033068;28;19959;-73
2023/03/26 11:16:53;;;;;;;;;;;;;;;14.12;69.23;99172.84;5033985;28;20378;-76
2023/03/26 11:19:31;;;;;;;;;;;;;;;14.26;68.14;99173.66;5034427;28;19909;-75
2023/03/26 11:21:56;;;;;;;;;;;;;;;14.17;67.29;99171.19;5032691;28;20373;-76
2023/03/26 11:24:22;;;;;;;;;;;;;;;13.95;66.51;99166.53;5034060;28;19909;-75
2023/03/26 11:26:48;;;;;;;;;;;;;;;13.78;70.79;99175.41;5034308;28;20350;-76
2023/03/26 11:29:47;;;;;;;;;;;;;;;13.74;71.12;99169.19;5034105;28;20273;-74
2023/03/26 11:32:35;;;;;;;;;;;;;;;13.77;68.18;99168.13;5033824;28;19940;-77
2023/03/26 11:35:20;;;;;;;;;;;;;;;13.75;67.26;99170.75;5033842;28;20357;-76
2023/03/26 11:37:47;;;;;;;;;;;;;;;13.82;66.90;99177.97;5034063;28;19909;-77
2023/03/26 11:40:20;;;;;;;;;;;;;;;14.14;66.43;99173.03;5032524;28;20266;-77
2023/03/26 11:43:02;;;;;;;;;;;;;;;14.62;62.72;99168.41;5034047;28;20309;-77
2023/03/26 11:45:31;;;;;;;;;;;;;;;14.83;56.78;99164.34;5032314;28;20001;-77
2023/03/26 11:47:58;;;;;;;;;;;;;;;15.04;56.53;99170.25;5029582;28;19917;-75
2023/03/26 11:50:29;;;;;;;;;;;;;;;15.27;53.99;99165.59;5032531;28;19919;-75
2023/03/26 11:53:16;;;;;;;;;;;;;;;15.38;54.54;99169.56;5032548;28;19963;-77
2023/03/26 11:55:45;;;;;;;;;;;;;;;15.65;54.85;99156.75;5033520;28;19917;-74
2023/03/26 11:58:20;;;;;;;;;;;;;;;15.99;52.11;99159.66;5032437;28;19981;-82
2023/03/26 12:00:47;;;;;;;;;;;;;;;16.09;51.78;99155.75;5031863;28;20365;-78
2023/03/26 12:03:15;;;;;;;;;;;;;;;16.25;51.55;99153.81;5039508;28;19963;-79
2023/03/26 12:05:52;;;;;;;;;;;;;;;16.41;51.30;99160.47;5032524;28;19909;-79
2023/03/26 12:08:37;;;;;;;;;;;;;;;16.34;50.07;99143.88;5030948;28;20012;-78
2023/03/26 12:11:05;;;;;;;;;;;;;;;16.08;50.76;99147.66;5030596;28;19913;-79
2023/03/26 12:13:43;;;;;;;;;;;;;;;15.77;52.05;99152.28;5013666;28;19915;-79
2023/03/26 12:16:10;;;;;;;;;;;;;;;15.62;54.68;99152.09;5031867;28;19909;-82
2023/03/26 12:18:35;;;;;;;;;;;;;;;15.50;57.10;99157.28;5032454;28;19909;-80
2023/03/26 12:21:03;;;;;;;;;;;;;;;15.46;57.98;99158.97;5031084;28;19960;-77
2023/03/26 12:23:35;;;;;;;;;;;;;;;15.47;60.21;99155.50;5033340;28;19912;-75
2023/03/26 12:26:24;;;;;;;;;;;;;;;15.49;60.63;99137.69;5032135;28;19960;-78
2023/03/26 12:28:50;;;;;;;;;;;;;;;15.56;61.00;99137.78;5031541;28;19909;-78
2023/03/26 12:31:40;;;;;;;;;;;;;;;15.60;60.40;99134.59;5032776;28;19916;-76
2023/03/26 12:34:06;;;;;;;;;;;;;;;15.62;60.93;99135.56;5039763;28;19916;-84
2023/03/26 12:36:32;;;;;;;;;;;;;;;15.68;61.03;99133.34;5019994;28;20004;-82
2023/03/26 12:38:58;;;;;;;;;;;;;;;15.59;60.03;99130.16;5057120;28;19909;-80
2023/03/26 12:41:36;;;;;;;;;;;;;;;15.54;60.30;99126.03;5056928;28;19912;-81
2023/03/26 12:44:22;;;;;;;;;;;;;;;15.58;60.46;99125.69;5056663;28;20327;-82
2023/03/26 12:46:47;;;;;;;;;;;;;;;15.66;61.08;99127.38;5056992;28;19909;-80
2023/03/26 12:49:13;;;;;;;;;;;;;;;15.73;58.16;99117.28;5057156;28;19965;-83
2023/03/26 12:51:48;;;;;;;;;;;;;;;15.82;58.83;99122.56;5057127;28;19916;-84
2023/03/26 12:54:17;;;;;;;;;;;;;;;16.00;57.73;99115.88;5055632;28;20333;-85
2023/03/26 12:56:46;;;;;;;;;;;;;;;16.10;55.79;99116.16;5055306;28;19967;-85
2023/03/26 12:59:31;;;;;;;;;;;;;;;16.20;56.72;99113.56;5057359;28;19909;-83
2023/03/26 13:02:00;;;;;;;;;;;;;;;16.21;55.25;99115.09;5055597;28;20300;-88
2023/03/26 13:04:38;;;;;;;;;;;;;;;16.25;56.27;99107.69;5039111;28;19995;-83
2023/03/26 13:07:14;;;;;;;;;;;;;;;16.35;55.78;99105.06;5056566;28;20011;-78
2023/03/26 13:09:50;;;;;;;;;;;;;;;16.28;54.78;99100.00;5057829;28;19971;-80